Aviation Digital Data Service (ADDS)

Output produced by METARs form (1736 UTC 22 May 2015)
found at http://aviationweather.gov/adds/metars/
 
KDET 221725Z 2218/2318 32012KT P6SM SKC 
     FM222200 36010KT P6SM SKC 
     FM230300 05005KT P6SM FEW280 
     FM231200 16004KT P6SM SKC